Time;durP1;ratioP1;P1;durP2;ratioP2;P2;SDS_P1;SDS_P2;PMS_P1;PMS_P2;Temp;Humidity;BMP_temperature;BMP_pressure;BME280_temperature;BME280_humidity;BME280_pressure;Samples;Min_cycle;Max_cycle;Signal;HPM_P1;HPM_P2
2023/10/15 00:01:38;;;;;;;10.30;5.13;;;6.00;77.00;;;;;;6222533;28;20492;-80
2023/10/15 00:04:40;;;;;;;12.55;4.95;;;5.90;76.00;;;;;;6222373;28;20058;-80
2023/10/15 00:07:42;;;;;;;11.55;5.30;;;5.90;75.30;;;;;;6222586;28;20058;-80
2023/10/15 00:10:44;;;;;;;13.85;5.05;;;5.80;74.90;;;;;;6222326;28;20046;-80
2023/10/15 00:13:45;;;;;;;11.18;5.05;;;5.80;75.40;;;;;;6218423;28;20058;-80
2023/10/15 00:16:47;;;;;;;14.15;5.43;;;5.70;75.80;;;;;;6222035;28;20068;-80
2023/10/15 00:19:49;;;;;;;12.35;5.13;;;5.70;75.70;;;;;;6220430;28;20061;-81
2023/10/15 00:22:51;;;;;;;9.57;4.95;;;5.70;76.10;;;;;;6220417;28;20061;-81
2023/10/15 00:25:53;;;;;;;11.88;4.85;;;5.60;75.40;;;;;;6220694;28;20058;-81
2023/10/15 00:28:55;;;;;;;12.80;4.80;;;5.60;76.00;;;;;;6220343;28;20060;-81
2023/10/15 00:31:56;;;;;;;14.82;5.60;;;5.60;76.70;;;;;;6221554;28;20571;-82
2023/10/15 00:34:58;;;;;;;13.10;5.25;;;5.60;76.80;;;;;;6220152;28;20050;-82
2023/10/15 00:38:00;;;;;;;11.07;5.00;;;5.70;77.40;;;;;;6220541;28;20057;-82
2023/10/15 00:41:07;;;;;;;13.82;5.57;;;5.60;77.00;;;;;;6220292;28;20098;-82
2023/10/15 00:44:09;;;;;;;11.82;5.00;;;5.70;77.60;;;;;;6206219;28;20498;-81
2023/10/15 00:47:15;;;;;;;12.48;4.68;;;5.70;77.60;;;;;;6220002;28;20394;-81
2023/10/15 00:50:17;;;;;;;9.13;4.15;;;5.70;77.40;;;;;;6219920;28;20167;-81
2023/10/15 00:53:22;;;;;;;12.75;5.25;;;5.80;77.30;;;;;;6219955;28;20058;-81
2023/10/15 00:56:24;;;;;;;11.85;4.68;;;5.70;77.00;;;;;;6219601;28;20065;-82
2023/10/15 00:59:43;;;;;;;10.07;4.30;;;5.70;76.70;;;;;;6214566;28;20058;-82
2023/10/15 01:02:46;;;;;;;11.80;4.15;;;5.70;76.50;;;;;;6196710;28;20201;-81
2023/10/15 01:05:53;;;;;;;11.43;4.18;;;5.60;76.30;;;;;;6219077;28;20053;-81
2023/10/15 01:08:55;;;;;;;10.85;4.05;;;5.70;76.60;;;;;;6195445;28;20058;-81
2023/10/15 01:11:57;;;;;;;8.88;4.05;;;5.60;75.90;;;;;;6220852;28;20064;-81
2023/10/15 01:14:58;;;;;;;9.55;3.67;;;5.60;76.30;;;;;;6218933;28;20050;-81
2023/10/15 01:18:06;;;;;;;10.88;3.45;;;5.60;75.30;;;;;;6220621;28;20050;-82
2023/10/15 01:21:14;;;;;;;11.48;3.92;;;5.60;75.90;;;;;;6196330;28;20054;-81
2023/10/15 01:24:18;;;;;;;10.23;3.72;;;5.50;75.40;;;;;;6211787;28;20058;-81
2023/10/15 01:27:28;;;;;;;9.57;3.83;;;5.50;76.10;;;;;;6218846;28;20053;-82
2023/10/15 01:30:35;;;;;;;10.43;3.75;;;5.50;76.00;;;;;;6207921;28;20069;-81
2023/10/15 01:34:12;;;;;;;10.15;3.53;;;5.50;75.80;;;;;;6211031;28;20084;-80
2023/10/15 01:37:15;;;;;;;8.65;3.40;;;5.50;76.20;;;;;;6194153;28;20057;-81
2023/10/15 01:40:36;;;;;;;9.95;3.88;;;5.40;76.60;;;;;;6194883;28;20054;-80
2023/10/15 01:43:37;;;;;;;9.00;3.70;;;5.40;76.50;;;;;;6214237;28;20045;-80
2023/10/15 01:47:06;;;;;;;7.20;3.50;;;5.40;76.30;;;;;;6243421;28;20472;-81
2023/10/15 01:50:08;;;;;;;8.45;4.03;;;5.40;76.30;;;;;;6210706;28;20133;-81
2023/10/15 01:53:10;;;;;;;11.30;3.25;;;5.40;76.50;;;;;;6226406;28;20526;-81
2023/10/15 01:56:17;;;;;;;10.30;3.78;;;5.20;75.90;;;;;;6219247;28;20062;-81
2023/10/15 01:59:19;;;;;;;9.00;3.72;;;5.30;75.90;;;;;;6208962;28;20046;-80
2023/10/15 02:02:23;;;;;;;10.88;3.63;;;5.20;75.80;;;;;;6218358;28;20064;-81
2023/10/15 02:05:30;;;;;;;8.52;3.60;;;5.10;75.50;;;;;;6220085;28;20050;-80
2023/10/15 02:08:33;;;;;;;11.70;3.70;;;5.20;76.10;;;;;;6195464;28;20058;-81
2023/10/15 02:11:42;;;;;;;7.13;3.50;;;5.10;76.00;;;;;;6219334;28;20050;-80
2023/10/15 02:14:44;;;;;;;10.82;3.58;;;5.10;75.90;;;;;;6195780;28;20058;-80
2023/10/15 02:17:46;;;;;;;9.05;4.00;;;5.00;75.90;;;;;;6219205;28;20509;-80
2023/10/15 02:24:06;;;;;;;7.53;3.40;;;5.00;76.80;;;;;;6219337;28;20489;-81
2023/10/15 02:27:09;;;;;;;9.15;3.70;;;4.90;76.10;;;;;;6195102;28;20566;-80
2023/10/15 02:30:12;;;;;;;10.15;3.60;;;4.90;76.60;;;;;;6215000;28;20057;-80
2023/10/15 02:33:18;;;;;;;10.23;3.22;;;4.90;76.60;;;;;;6217823;28;20058;-80
2023/10/15 02:36:24;;;;;;;6.43;3.13;;;4.90;76.40;;;;;;6219151;28;20085;-80
2023/10/15 02:39:25;;;;;;;7.68;3.30;;;4.80;76.30;;;;;;6217726;28;20405;-80
2023/10/15 02:42:37;;;;;;;10.05;3.42;;;4.80;77.00;;;;;;6218292;28;20050;-79
2023/10/15 02:45:43;;;;;;;7.40;3.03;;;4.80;75.90;;;;;;6220138;28;20452;-80
2023/10/15 02:48:47;;;;;;;9.90;3.30;;;4.80;76.90;;;;;;6194968;28;20054;-80
2023/10/15 02:51:49;;;;;;;9.00;3.15;;;4.70;76.60;;;;;;6218684;28;20059;-80
2023/10/15 02:54:51;;;;;;;9.68;3.47;;;4.70;76.90;;;;;;6217676;28;20058;-80
2023/10/15 02:58:00;;;;;;;7.03;3.00;;;4.60;76.80;;;;;;6213832;28;20425;-80
2023/10/15 03:01:06;;;;;;;8.20;3.10;;;4.60;77.00;;;;;;6217422;28;20355;-80
2023/10/15 03:04:09;;;;;;;10.32;3.25;;;4.50;77.10;;;;;;6193332;28;20054;-80
2023/10/15 03:07:26;;;;;;;6.40;2.90;;;4.50;76.90;;;;;;6216963;28;20064;-80
2023/10/15 03:10:30;;;;;;;8.02;2.75;;;4.50;77.00;;;;;;6209165;28;20054;-80
2023/10/15 03:13:32;;;;;;;7.35;2.72;;;4.50;76.70;;;;;;6229239;28;20097;-80
2023/10/15 03:16:35;;;;;;;8.75;3.25;;;4.40;76.50;;;;;;6218804;28;20053;-80
2023/10/15 03:19:37;;;;;;;8.27;2.80;;;4.50;77.50;;;;;;6217219;28;20076;-81
2023/10/15 03:22:38;;;;;;;11.10;2.65;;;4.50;77.70;;;;;;6218712;28;20489;-81
2023/10/15 03:25:40;;;;;;;5.78;2.72;;;4.40;77.00;;;;;;6217448;28;20046;-81
2023/10/15 03:28:44;;;;;;;9.25;2.72;;;4.30;76.50;;;;;;6214552;28;20066;-81
2023/10/15 03:31:46;;;;;;;6.65;2.50;;;4.30;76.50;;;;;;6216897;28;20490;-81
2023/10/15 03:34:59;;;;;;;6.43;2.90;;;4.30;76.70;;;;;;6218318;28;20054;-81
2023/10/15 03:38:06;;;;;;;7.15;3.00;;;4.30;76.90;;;;;;6192849;28;20065;-81
2023/10/15 03:41:11;;;;;;;8.70;3.05;;;4.30;77.30;;;;;;6192507;28;20051;-81
2023/10/15 03:44:14;;;;;;;7.13;2.97;;;4.30;77.50;;;;;;6214160;22;20046;-77
2023/10/15 03:47:16;;;;;;;8.27;3.13;;;4.30;77.50;;;;;;6194445;28;20054;-77
2023/10/15 03:50:17;;;;;;;9.13;3.08;;;4.20;77.30;;;;;;6194103;28;20050;-77
2023/10/15 03:53:20;;;;;;;7.60;2.65;;;4.20;77.40;;;;;;6194266;28;20061;-77
2023/10/15 03:56:29;;;;;;;9.80;3.13;;;4.10;77.10;;;;;;6192336;28;20058;-77
2023/10/15 03:59:32;;;;;;;6.97;2.30;;;4.10;77.00;;;;;;6167474;28;20437;-76
2023/10/15 04:02:59;;;;;;;7.93;2.78;;;4.00;76.60;;;;;;6194416;28;20061;-76
2023/10/15 04:06:01;;;;;;;6.57;2.70;;;4.00;77.00;;;;;;6174333;28;20050;-76
2023/10/15 04:12:06;;;;;;;10.05;3.15;;;4.00;77.40;;;;;;6197792;28;20141;-77
2023/10/15 04:15:14;;;;;;;7.78;2.88;;;4.00;77.40;;;;;;6197698;28;20320;-77
2023/10/15 04:18:17;;;;;;;6.55;2.60;;;3.90;77.30;;;;;;6173867;28;20410;-78
2023/10/15 04:21:20;;;;;;;10.02;2.60;;;4.00;77.30;;;;;;6197653;28;20069;-76
2023/10/15 04:24:28;;;;;;;8.85;2.80;;;3.90;77.30;;;;;;6197920;28;20054;-78
2023/10/15 04:27:34;;;;;;;6.03;2.42;;;3.90;77.20;;;;;;6174315;28;20507;-78
2023/10/15 04:30:36;;;;;;;7.80;2.83;;;3.90;77.30;;;;;;6197719;28;20069;-76
2023/10/15 04:33:41;;;;;;;7.07;2.80;;;3.90;77.20;;;;;;6173657;28;20051;-76
2023/10/15 04:36:43;;;;;;;5.50;2.30;;;3.90;77.30;;;;;;6197409;28;20059;-76
2023/10/15 04:39:55;;;;;;;7.30;2.78;;;3.80;77.80;;;;;;6195978;28;20050;-77
2023/10/15 04:43:17;;;;;;;5.03;2.67;;;3.80;77.30;;;;;;6173410;28;20061;-78
2023/10/15 04:46:25;;;;;;;8.65;2.60;;;3.80;77.40;;;;;;6197368;28;20530;-78
2023/10/15 04:49:27;;;;;;;7.65;2.92;;;3.90;77.90;;;;;;6187800;28;20415;-78
2023/10/15 04:52:28;;;;;;;10.60;3.10;;;3.90;78.10;;;;;;6198129;28;20065;-78
2023/10/15 04:55:30;;;;;;;6.85;2.70;;;3.90;78.10;;;;;;6198348;28;20050;-77
2023/10/15 04:58:32;;;;;;;8.45;2.88;;;3.90;77.90;;;;;;6190948;28;20127;-78
2023/10/15 05:01:33;;;;;;;8.63;2.50;;;3.80;78.00;;;;;;6197506;28;20050;-78
2023/10/15 05:04:35;;;;;;;7.82;2.58;;;3.90;78.20;;;;;;6197359;28;20061;-77
2023/10/15 05:07:37;;;;;;;5.18;2.30;;;3.90;78.10;;;;;;6197136;28;20086;-75
2023/10/15 05:10:44;;;;;;;5.55;2.50;;;3.90;77.70;;;;;;6196855;28;20054;-77
2023/10/15 05:13:47;;;;;;;9.50;2.70;;;3.90;77.90;;;;;;6191547;28;20081;-77
2023/10/15 05:16:48;;;;;;;5.32;2.40;;;3.90;77.90;;;;;;6196397;28;20058;-77
2023/10/15 05:19:52;;;;;;;7.72;2.55;;;3.80;77.50;;;;;;6196429;28;20046;-77
2023/10/15 05:22:56;;;;;;;5.35;2.50;;;3.80;77.90;;;;;;6196693;28;20086;-76
2023/10/15 05:25:58;;;;;;;7.43;2.63;;;3.70;77.20;;;;;;6196967;28;20058;-77
2023/10/15 05:29:00;;;;;;;6.32;2.72;;;3.80;77.80;;;;;;6195467;28;20057;-77
2023/10/15 05:32:02;;;;;;;7.57;2.83;;;3.60;77.40;;;;;;6195948;28;20054;-76
2023/10/15 05:35:03;;;;;;;5.72;2.35;;;3.60;77.50;;;;;;6195978;28;20054;-76
2023/10/15 05:38:09;;;;;;;8.00;2.60;;;3.60;77.20;;;;;;6196256;28;20054;-76
2023/10/15 05:41:11;;;;;;;5.30;2.50;;;3.60;77.60;;;;;;6195669;28;20050;-76
2023/10/15 05:44:13;;;;;;;8.15;2.65;;;3.50;77.10;;;;;;6188592;28;20498;-76
2023/10/15 05:47:15;;;;;;;7.88;2.40;;;3.50;77.20;;;;;;6195699;28;20061;-76
2023/10/15 05:50:17;;;;;;;10.98;2.90;;;3.50;77.40;;;;;;6195729;28;20402;-77
2023/10/15 05:53:18;;;;;;;6.30;2.95;;;3.60;77.80;;;;;;6195481;28;20426;-78
2023/10/15 05:56:21;;;;;;;6.07;2.53;;;3.50;77.70;;;;;;6194320;28;20061;-78
2023/10/15 05:59:23;;;;;;;6.93;2.65;;;3.60;77.90;;;;;;6193068;28;20057;-78
2023/10/15 06:02:24;;;;;;;8.05;2.45;;;3.60;77.90;;;;;;6195439;28;20057;-78
2023/10/15 06:05:28;;;;;;;8.55;2.85;;;3.60;77.90;;;;;;6194047;28;20066;-78
2023/10/15 06:08:30;;;;;;;7.10;2.72;;;3.60;77.90;;;;;;6195048;28;20054;-76
2023/10/15 06:11:31;;;;;;;9.63;2.53;;;3.60;78.00;;;;;;6195242;28;20054;-76
2023/10/15 06:14:33;;;;;;;6.32;2.30;;;3.50;78.00;;;;;;6193095;28;20053;-76
2023/10/15 06:17:34;;;;;;;4.47;2.40;;;3.60;78.00;;;;;;6195234;28;20418;-76
2023/10/15 06:20:36;;;;;;;5.05;2.53;;;3.60;78.10;;;;;;6194673;28;20061;-76
2023/10/15 06:23:38;;;;;;;6.65;2.78;;;3.60;78.00;;;;;;6194821;28;20081;-76
2023/10/15 06:26:40;;;;;;;8.60;2.38;;;3.60;78.10;;;;;;6194352;28;20491;-76
2023/10/15 06:29:41;;;;;;;5.72;2.50;;;3.60;78.10;;;;;;6188567;28;20065;-78
2023/10/15 06:32:43;;;;;;;7.90;2.60;;;3.50;78.00;;;;;;6194878;28;20138;-76
2023/10/15 06:35:45;;;;;;;4.45;2.30;;;3.50;77.80;;;;;;6194691;28;20058;-78
2023/10/15 06:38:46;;;;;;;9.27;2.63;;;3.50;77.90;;;;;;6194937;28;20054;-78
2023/10/15 06:41:48;;;;;;;9.32;2.67;;;3.50;78.00;;;;;;6194492;28;20050;-78
2023/10/15 06:44:50;;;;;;;8.27;2.60;;;3.50;78.10;;;;;;6186306;28;20076;-78
2023/10/15 06:47:52;;;;;;;11.38;2.83;;;3.60;78.10;;;;;;6194611;28;20054;-76
2023/10/15 06:50:55;;;;;;;10.55;2.70;;;3.60;78.20;;;;;;6192684;28;20058;-76
2023/10/15 06:53:57;;;;;;;6.43;2.60;;;3.70;78.40;;;;;;6194671;28;20050;-77
2023/10/15 06:56:59;;;;;;;6.85;2.80;;;3.70;78.40;;;;;;6194684;28;20141;-76
2023/10/15 07:00:00;;;;;;;7.75;2.50;;;3.80;78.50;;;;;;6190921;28;20057;-77
2023/10/15 07:03:02;;;;;;;8.95;2.80;;;3.80;78.50;;;;;;6194682;28;20054;-76
2023/10/15 07:06:04;;;;;;;8.13;2.63;;;3.80;78.50;;;;;;6194358;28;20054;-77
2023/10/15 07:09:05;;;;;;;7.47;2.85;;;3.80;78.40;;;;;;6194025;28;20057;-78
2023/10/15 07:12:08;;;;;;;5.82;2.65;;;3.90;78.20;;;;;;6192581;28;20054;-77
2023/10/15 07:15:09;;;;;;;6.88;2.60;;;3.80;78.30;;;;;;6189046;28;20066;-77
2023/10/15 07:18:11;;;;;;;6.68;2.55;;;3.90;78.30;;;;;;6194010;28;20061;-77
2023/10/15 07:21:13;;;;;;;5.90;2.45;;;3.90;78.20;;;;;;6194488;28;20061;-77
2023/10/15 07:24:14;;;;;;;8.20;2.83;;;4.00;78.20;;;;;;6194294;28;20403;-77
2023/10/15 07:27:16;;;;;;;7.00;2.75;;;3.90;78.20;;;;;;6194519;28;20050;-78
2023/10/15 07:30:19;;;;;;;7.90;2.83;;;4.00;78.30;;;;;;6186587;28;20097;-77
2023/10/15 07:33:21;;;;;;;7.00;2.50;;;4.20;78.80;;;;;;6193967;28;20058;-77
2023/10/15 07:36:23;;;;;;;5.00;2.38;;;4.40;78.90;;;;;;6194786;28;20479;-78
2023/10/15 07:39:25;;;;;;;6.50;2.60;;;4.60;79.00;;;;;;6198857;28;20058;-78
2023/10/15 07:42:26;;;;;;;4.55;1.50;;;5.00;79.50;;;;;;6198179;28;20051;-78
2023/10/15 07:45:28;;;;;;;3.47;1.60;;;5.90;79.80;;;;;;6192547;28;20084;-78
2023/10/15 07:48:30;;;;;;;9.52;1.73;;;7.30;81.70;;;;;;6198246;28;20181;-79
2023/10/15 07:51:33;;;;;;;3.47;1.50;;;8.30;82.00;;;;;;6198752;28;20061;-78
2023/10/15 07:54:34;;;;;;;4.60;1.48;;;9.20;72.70;;;;;;6198489;28;20084;-77
2023/10/15 07:57:37;;;;;;;3.97;1.35;;;9.80;46.70;;;;;;6193558;28;20050;-77
2023/10/15 08:00:39;;;;;;;6.60;2.00;;;10.50;39.60;;;;;;6198421;28;20054;-78
2023/10/15 08:03:41;;;;;;;4.88;1.65;;;10.80;35.60;;;;;;6174056;28;20047;-77
2023/10/15 08:06:43;;;;;;;5.07;1.50;;;11.30;30.20;;;;;;6197733;28;20064;-78
2023/10/15 08:09:44;;;;;;;3.40;1.40;;;11.60;16.70;;;;;;6198029;28;20050;-78
2023/10/15 08:12:48;;;;;;;3.88;1.40;;;12.00;1.00;;;;;;6190211;28;20050;-77
2023/10/15 08:15:50;;;;;;;3.65;1.60;;;12.20;10.40;;;;;;6197965;28;20046;-77
2023/10/15 08:18:54;;;;;;;5.03;1.67;;;12.60;1.00;;;;;;6197967;28;20065;-78
2023/10/15 08:21:56;;;;;;;3.20;1.30;;;12.60;1.00;;;;;;6197638;28;20414;-77
2023/10/15 08:24:57;;;;;;;7.75;1.80;;;13.20;1.00;;;;;;6197645;28;20407;-76
2023/10/15 08:27:59;;;;;;;5.22;1.45;;;13.60;1.00;;;;;;6192226;28;20057;-78
2023/10/15 08:31:00;;;;;;;5.07;1.40;;;13.60;1.00;;;;;;6197568;28;20061;-77
2023/10/15 08:34:02;;;;;;;6.35;1.50;;;13.70;1.00;;;;;;6173809;28;20064;-77
2023/10/15 08:37:04;;;;;;;4.75;1.40;;;14.00;1.00;;;;;;6196906;28;20057;-76
2023/10/15 08:40:06;;;;;;;3.58;1.45;;;14.50;1.00;;;;;;6197294;28;20417;-76
2023/10/15 08:43:07;;;;;;;6.28;1.40;;;14.90;1.00;;;;;;6192248;28;20078;-78
2023/10/15 08:46:09;;;;;;;5.53;1.40;;;15.00;1.00;;;;;;6195672;28;20062;-78
2023/10/15 08:49:12;;;;;;;6.05;1.60;;;15.00;1.00;;;;;;6196451;28;20061;-77
2023/10/15 08:52:14;;;;;;;6.22;2.10;;;15.60;1.00;;;;;;6197125;28;20061;-77
2023/10/15 08:55:15;;;;;;;7.43;1.70;;;15.60;1.00;;;;;;6196818;28;20046;-77
2023/10/15 08:58:18;;;;;;;6.80;1.90;;;15.40;1.00;;;;;;6192481;28;20426;-78
2023/10/15 09:01:22;;;;;;;5.03;1.73;;;15.70;1.00;;;;;;6196758;28;20065;-77
2023/10/15 09:04:23;;;;;;;4.50;1.90;;;15.80;1.00;;;;;;6197076;28;20128;-77
2023/10/15 09:07:26;;;;;;;4.65;1.52;;;15.70;1.00;;;;;;6196795;28;20093;-77
2023/10/15 09:10:27;;;;;;;5.85;1.70;;;16.10;1.00;;;;;;6196845;28;20069;-79
2023/10/15 09:13:29;;;;;;;6.22;2.05;;;16.20;1.00;;;;;;6192852;28;20062;-76
2023/10/15 09:16:31;;;;;;;5.30;1.77;;;16.50;1.00;;;;;;6195967;28;20506;-76
2023/10/15 09:19:32;;;;;;;4.72;1.80;;;16.50;1.00;;;;;;6196430;28;20061;-78
2023/10/15 09:22:34;;;;;;;5.90;2.33;;;16.30;1.00;;;;;;6194989;28;20061;-78
2023/10/15 09:25:36;;;;;;;6.15;1.90;;;16.50;1.00;;;;;;6196513;28;20054;-78
2023/10/15 09:28:38;;;;;;;6.20;1.85;;;16.70;1.00;;;;;;6189485;28;20058;-77
2023/10/15 09:31:39;;;;;;;5.55;2.15;;;16.10;1.00;;;;;;6196333;28;20107;-76
2023/10/15 09:34:42;;;;;;;6.55;1.80;;;15.40;1.00;;;;;;6196465;28;20136;-78
2023/10/15 09:37:46;;;;;;;5.63;1.95;;;14.60;1.00;;;;;;6196260;28;20465;-77
2023/10/15 09:40:48;;;;;;;4.80;1.65;;;14.10;1.00;;;;;;6195998;28;20050;-77
2023/10/15 09:43:50;;;;;;;5.68;1.70;;;13.50;1.00;;;;;;6201535;22;20053;-83
2023/10/15 09:46:51;;;;;;;4.47;1.45;;;13.00;1.00;;;;;;6194589;28;20062;-83
2023/10/15 09:49:54;;;;;;;5.07;1.40;;;12.70;1.00;;;;;;6194461;28;20069;-83
2023/10/15 09:52:56;;;;;;;4.45;1.33;;;13.10;1.00;;;;;;6195831;28;20081;-83
2023/10/15 09:55:59;;;;;;;7.63;1.48;;;13.50;1.00;;;;;;6194602;28;20065;-82
2023/10/15 09:59:02;;;;;;;3.28;1.10;;;14.10;1.00;;;;;;6192102;28;20073;-83
2023/10/15 10:02:07;;;;;;;4.97;1.50;;;14.90;1.00;;;;;;6192865;28;20050;-84
2023/10/15 10:05:17;;;;;;;6.43;1.40;;;15.20;1.00;;;;;;6186226;28;20055;-84
2023/10/15 10:08:19;;;;;;;5.70;1.30;;;15.20;1.00;;;;;;6171589;28;20057;-86
2023/10/15 10:11:22;;;;;;;7.03;1.20;;;15.70;1.00;;;;;;6202516;28;20055;-85
2023/10/15 10:14:24;;;;;;;4.25;1.45;;;16.40;1.00;;;;;;6191164;28;20054;-85
2023/10/15 10:17:26;;;;;;;4.38;1.20;;;16.90;1.00;;;;;;6194081;28;20058;-85
2023/10/15 10:20:29;;;;;;;3.67;1.00;;;17.20;1.00;;;;;;6194386;28;20058;-84
2023/10/15 10:23:30;;;;;;;7.15;1.23;;;17.60;1.00;;;;;;6193737;28;20085;-84
2023/10/15 10:26:49;;;;;;;5.72;1.40;;;17.20;1.00;;;;;;6183485;28;20051;-84
2023/10/15 10:29:51;;;;;;;6.72;1.30;;;16.80;1.00;;;;;;6189327;28;20054;-84
2023/10/15 10:32:52;;;;;;;4.55;1.15;;;17.60;1.00;;;;;;6193654;28;20066;-84
2023/10/15 10:35:54;;;;;;;5.35;1.13;;;17.70;1.00;;;;;;6193942;28;20100;-83
2023/10/15 10:38:55;;;;;;;5.30;1.20;;;17.30;1.00;;;;;;6195132;28;20061;-83
2023/10/15 10:42:00;;;;;;;5.75;1.20;;;17.50;1.00;;;;;;6194414;28;20058;-84
2023/10/15 10:45:02;;;;;;;5.57;1.20;;;17.50;1.00;;;;;;6200758;28;20062;-82
2023/10/15 10:48:04;;;;;;;5.07;1.30;;;17.70;1.00;;;;;;6193856;28;20096;-82
2023/10/15 10:51:06;;;;;;;4.32;1.20;;;17.70;1.00;;;;;;6193153;28;20062;-83
2023/10/15 10:54:07;;;;;;;4.63;1.40;;;17.70;1.00;;;;;;6193110;28;20058;-83
2023/10/15 10:57:09;;;;;;;4.15;1.27;;;17.80;1.00;;;;;;6194592;28;20055;-83
2023/10/15 11:00:12;;;;;;;4.25;1.35;;;18.10;1.00;;;;;;6189339;28;20141;-83
2023/10/15 11:03:14;;;;;;;3.30;1.25;;;17.80;1.00;;;;;;6194562;28;20395;-83
2023/10/15 11:06:15;;;;;;;5.47;1.30;;;17.70;1.00;;;;;;6193111;28;20424;-82
2023/10/15 11:09:19;;;;;;;4.72;1.30;;;17.60;1.00;;;;;;6193072;28;20077;-83
2023/10/15 11:12:22;;;;;;;5.50;1.20;;;18.00;1.00;;;;;;6194728;28;20065;-82
2023/10/15 11:15:23;;;;;;;7.25;1.50;;;17.90;1.00;;;;;;6173556;28;20103;-83
2023/10/15 11:18:26;;;;;;;4.25;1.20;;;18.10;1.00;;;;;;6175467;28;20055;-83
2023/10/15 11:21:27;;;;;;;3.25;1.13;;;18.30;1.00;;;;;;6198938;28;20058;-84
2023/10/15 11:24:29;;;;;;;3.33;1.17;;;18.40;1.00;;;;;;6199056;28;20054;-82
2023/10/15 11:27:31;;;;;;;5.88;1.27;;;18.20;1.00;;;;;;6195610;28;20391;-78
2023/10/15 11:30:33;;;;;;;5.05;1.20;;;18.10;1.00;;;;;;6196171;28;20065;-83
2023/10/15 11:33:34;;;;;;;5.18;1.15;;;18.70;1.00;;;;;;6173530;28;20106;-83
2023/10/15 11:36:36;;;;;;;3.80;1.13;;;18.60;1.00;;;;;;6198616;28;20069;-82
2023/10/15 11:39:38;;;;;;;6.88;1.20;;;18.70;1.00;;;;;;6197493;28;20074;-83
2023/10/15 11:42:41;;;;;;;3.80;1.00;;;18.90;1.00;;;;;;6194749;28;20058;-81
2023/10/15 11:45:43;;;;;;;4.50;1.20;;;18.40;1.00;;;;;;6218006;28;20058;-82
2023/10/15 11:48:45;;;;;;;5.20;1.13;;;18.30;1.00;;;;;;6197200;28;20418;-83
2023/10/15 11:51:46;;;;;;;4.25;1.30;;;18.40;1.00;;;;;;6197303;28;20058;-82
2023/10/15 11:54:51;;;;;;;5.18;1.20;;;18.40;1.00;;;;;;6198857;28;20058;-82
2023/10/15 11:57:54;;;;;;;4.03;1.10;;;18.40;1.00;;;;;;6193214;28;20061;-82
2023/10/15 12:00:58;;;;;;;2.72;1.00;;;18.00;1.00;;;;;;6198514;28;20470;-82
2023/10/15 12:04:00;;;;;;;4.22;1.02;;;17.80;1.00;;;;;;6188949;28;20062;-82
2023/10/15 12:07:03;;;;;;;3.50;1.00;;;17.50;1.00;;;;;;6197780;28;20054;-82
2023/10/15 12:10:14;;;;;;;6.00;1.08;;;17.60;1.00;;;;;;6196805;28;20132;-83
2023/10/15 12:13:15;;;;;;;2.47;0.88;;;18.00;1.00;;;;;;6195409;28;20053;-82
2023/10/15 12:16:17;;;;;;;3.17;1.00;;;18.00;1.00;;;;;;6198135;28;20054;-82
2023/10/15 12:19:19;;;;;;;4.82;1.20;;;17.90;1.00;;;;;;6198185;28;20545;-82
2023/10/15 12:22:21;;;;;;;4.45;1.00;;;18.00;1.00;;;;;;6197391;28;20505;-82
2023/10/15 12:25:22;;;;;;;2.72;1.00;;;18.00;1.00;;;;;;6196894;28;20054;-82
2023/10/15 12:28:24;;;;;;;4.10;0.90;;;18.00;1.00;;;;;;6191698;28;20530;-83
2023/10/15 12:31:26;;;;;;;4.75;1.00;;;17.80;1.00;;;;;;6197707;28;20156;-83
2023/10/15 12:34:28;;;;;;;3.67;1.00;;;17.60;1.00;;;;;;6197463;28;20164;-81
2023/10/15 12:37:31;;;;;;;2.83;0.80;;;17.30;1.00;;;;;;6196042;28;20125;-82
2023/10/15 12:40:32;;;;;;;5.80;1.20;;;17.70;1.00;;;;;;6197552;28;20054;-81
2023/10/15 12:43:34;;;;;;;3.03;0.90;;;18.20;1.00;;;;;;6197424;28;20331;-81
2023/10/15 12:46:36;;;;;;;4.65;1.17;;;18.10;1.00;;;;;;6196557;28;20332;-82
2023/10/15 12:49:39;;;;;;;3.28;1.00;;;17.80;1.00;;;;;;6195888;28;20066;-82
2023/10/15 12:52:42;;;;;;;2.22;0.90;;;17.70;1.00;;;;;;6195397;28;20394;-81
2023/10/15 12:55:43;;;;;;;5.50;1.13;;;17.50;1.00;;;;;;6195835;28;20050;-81
2023/10/15 12:58:45;;;;;;;2.40;0.80;;;17.60;1.00;;;;;;6196233;28;20046;-81
2023/10/15 13:01:47;;;;;;;3.08;1.00;;;17.60;1.00;;;;;;6197017;28;20058;-84
2023/10/15 13:04:49;;;;;;;3.47;1.00;;;17.40;1.00;;;;;;6196901;28;20463;-81
2023/10/15 13:07:51;;;;;;;6.00;1.08;;;17.10;1.00;;;;;;6196583;28;20077;-82
2023/10/15 13:10:53;;;;;;;4.03;0.90;;;17.30;1.00;;;;;;6195659;28;20054;-81
2023/10/15 13:13:54;;;;;;;3.50;1.10;;;17.30;1.00;;;;;;6194591;28;20232;-82
2023/10/15 13:16:56;;;;;;;3.00;0.77;;;17.30;1.00;;;;;;6196491;28;20054;-81
2023/10/15 13:19:59;;;;;;;4.45;1.20;;;17.30;1.00;;;;;;6196380;28;20058;-82
2023/10/15 13:23:01;;;;;;;3.22;0.85;;;17.20;1.00;;;;;;6196234;28;20054;-81
2023/10/15 13:26:04;;;;;;;6.63;1.10;;;16.90;1.00;;;;;;6196198;28;20054;-82
2023/10/15 13:29:08;;;;;;;2.47;0.90;;;17.20;1.00;;;;;;6189993;28;20061;-82
2023/10/15 13:32:10;;;;;;;3.03;0.82;;;17.50;1.00;;;;;;6195865;28;20085;-82
2023/10/15 13:35:13;;;;;;;3.45;1.05;;;17.90;1.00;;;;;;6196149;28;20046;-82
2023/10/15 13:38:14;;;;;;;3.03;1.10;;;18.40;1.00;;;;;;6196042;28;20054;-81
2023/10/15 13:41:18;;;;;;;6.53;1.15;;;18.30;1.00;;;;;;6194882;28;20611;-81
2023/10/15 13:44:20;;;;;;;2.97;0.90;;;17.80;1.00;;;;;;6191715;28;20093;-82
2023/10/15 13:47:22;;;;;;;2.22;0.82;;;17.60;1.00;;;;;;6196030;28;20050;-82
2023/10/15 13:50:23;;;;;;;4.35;1.00;;;17.70;1.00;;;;;;6194152;28;20088;-81
2023/10/15 13:53:25;;;;;;;8.38;1.27;;;17.50;1.00;;;;;;6194200;28;20396;-82
2023/10/15 13:56:26;;;;;;;6.03;1.00;;;17.60;1.00;;;;;;6194086;28;20058;-81
2023/10/15 13:59:28;;;;;;;3.88;1.00;;;17.60;1.00;;;;;;6193386;28;20058;-81
2023/10/15 14:02:30;;;;;;;7.63;1.10;;;17.40;1.00;;;;;;6195354;28;20141;-82
2023/10/15 14:05:32;;;;;;;3.15;0.98;;;17.40;1.00;;;;;;6195637;28;20145;-82
2023/10/15 14:08:34;;;;;;;4.47;1.00;;;17.40;1.00;;;;;;6195476;28;20057;-81
2023/10/15 14:11:37;;;;;;;4.18;0.80;;;17.40;1.00;;;;;;6195527;28;20502;-82
2023/10/15 14:14:38;;;;;;;4.75;1.20;;;17.20;1.00;;;;;;6188508;28;20540;-82
2023/10/15 14:17:42;;;;;;;4.18;0.90;;;16.90;1.00;;;;;;6195055;28;20046;-81
2023/10/15 14:20:44;;;;;;;3.58;1.00;;;16.70;1.00;;;;;;6194615;28;20050;-81
2023/10/15 14:23:46;;;;;;;4.05;1.10;;;17.00;1.00;;;;;;6193375;28;20160;-81
2023/10/15 14:26:47;;;;;;;4.38;1.00;;;16.70;1.00;;;;;;6194602;28;20057;-82
2023/10/15 14:29:49;;;;;;;5.70;1.40;;;16.40;1.00;;;;;;6188831;28;20092;-81
2023/10/15 14:32:50;;;;;;;5.50;1.40;;;16.20;1.00;;;;;;6194690;28;20054;-81
2023/10/15 14:35:53;;;;;;;3.83;1.10;;;15.60;1.00;;;;;;6194888;28;20069;-81
2023/10/15 14:38:55;;;;;;;4.32;1.00;;;15.70;1.00;;;;;;6194788;28;20486;-82
2023/10/15 14:41:57;;;;;;;4.15;1.15;;;15.50;1.00;;;;;;6193811;28;20054;-81
2023/10/15 14:44:59;;;;;;;4.22;1.00;;;15.10;1.00;;;;;;6175276;28;20334;-80
2023/10/15 14:48:01;;;;;;;5.20;1.33;;;14.90;1.00;;;;;;6192583;28;20058;-81
2023/10/15 14:51:04;;;;;;;5.10;0.95;;;14.30;1.00;;;;;;6194797;28;20077;-80
2023/10/15 14:54:06;;;;;;;4.30;1.10;;;13.70;1.00;;;;;;6193212;28;20136;-82
2023/10/15 14:57:08;;;;;;;4.60;1.08;;;13.30;1.00;;;;;;6193276;28;20541;-82
2023/10/15 15:00:14;;;;;;;4.63;1.10;;;13.20;1.00;;;;;;6185699;28;20065;-82
2023/10/15 15:03:20;;;;;;;4.05;1.10;;;13.10;1.00;;;;;;6168986;28;20145;-82
2023/10/15 15:06:23;;;;;;;3.83;1.10;;;12.80;1.00;;;;;;6170437;28;20499;-82
2023/10/15 15:09:24;;;;;;;5.03;1.20;;;12.70;1.00;;;;;;6194689;28;20062;-80
2023/10/15 15:12:26;;;;;;;3.25;1.20;;;12.50;1.00;;;;;;6192757;28;20521;-79
2023/10/15 15:15:28;;;;;;;4.25;1.10;;;12.30;1.00;;;;;;6194787;28;20062;-80
2023/10/15 15:18:30;;;;;;;3.28;1.17;;;12.10;1.00;;;;;;6168966;28;20513;-81
2023/10/15 15:21:32;;;;;;;4.85;1.40;;;12.00;1.00;;;;;;6194006;28;20061;-81
2023/10/15 15:24:34;;;;;;;6.88;1.20;;;11.90;1.00;;;;;;6194518;28;20064;-80
2023/10/15 15:27:35;;;;;;;5.30;1.30;;;11.80;1.00;;;;;;6190616;28;20510;-80
2023/10/15 15:30:38;;;;;;;5.47;1.23;;;11.70;1.00;;;;;;6194000;28;20065;-82
2023/10/15 15:33:40;;;;;;;3.90;1.20;;;11.70;1.00;;;;;;6169091;28;20095;-79
2023/10/15 15:36:41;;;;;;;5.85;1.40;;;11.70;1.00;;;;;;6200535;28;20514;-80
2023/10/15 15:39:43;;;;;;;4.13;1.30;;;11.40;1.00;;;;;;6192316;28;20119;-79
2023/10/15 15:42:45;;;;;;;4.43;1.42;;;11.30;1.00;;;;;;6190495;28;20541;-79
2023/10/15 15:45:47;;;;;;;5.40;1.85;;;11.10;1.00;;;;;;6192181;28;20058;-82
2023/10/15 15:48:49;;;;;;;5.97;1.85;;;11.00;1.00;;;;;;6192561;28;20619;-82
2023/10/15 15:52:00;;;;;;;3.97;0.90;;;11.00;1.00;;;;;;6191033;28;20050;-76
2023/10/15 15:55:04;;;;;;;3.75;1.10;;;10.90;1.00;;;;;;6193466;28;20058;-76
2023/10/15 15:58:06;;;;;;;3.67;1.02;;;10.80;1.00;;;;;;6186185;28;20126;-75
2023/10/15 16:01:08;;;;;;;3.42;1.05;;;10.70;1.00;;;;;;6174140;28;20055;-75
2023/10/15 16:04:10;;;;;;;3.17;0.90;;;10.60;1.00;;;;;;6197776;28;20061;-75
2023/10/15 16:07:12;;;;;;;4.75;1.25;;;10.50;1.00;;;;;;6174651;28;20494;-75
2023/10/15 16:10:14;;;;;;;6.53;1.40;;;10.40;1.00;;;;;;6197713;28;20065;-74